sensor_id;sensor_type;location;lat;lon;timestamp;P1;durP1;ratioP1;P2;durP2;ratioP2
5225;SDS011;2632;51.666;7.146;2024-01-06T00:01:14;27.50;;;14.50;;
5225;SDS011;2632;51.666;7.146;2024-01-06T00:03:42;22.30;;;12.73;;
5225;SDS011;2632;51.666;7.146;2024-01-06T00:06:15;22.37;;;12.20;;
5225;SDS011;2632;51.666;7.146;2024-01-06T00:08:42;23.60;;;12.60;;
5225;SDS011;2632;51.666;7.146;2024-01-06T00:11:09;21.10;;;12.53;;
5225;SDS011;2632;51.666;7.146;2024-01-06T00:13:36;22.53;;;11.93;;
5225;SDS011;2632;51.666;7.146;2024-01-06T00:16:04;25.50;;;12.73;;
5225;SDS011;2632;51.666;7.146;2024-01-06T00:18:31;25.07;;;13.33;;
5225;SDS011;2632;51.666;7.146;2024-01-06T00:20:58;24.07;;;13.07;;
5225;SDS011;2632;51.666;7.146;2024-01-06T00:23:25;24.00;;;12.30;;
5225;SDS011;2632;51.666;7.146;2024-01-06T00:25:52;25.17;;;13.27;;
5225;SDS011;2632;51.666;7.146;2024-01-06T00:28:19;21.30;;;11.67;;
5225;SDS011;2632;51.666;7.146;2024-01-06T00:30:46;23.73;;;13.20;;
5225;SDS011;2632;51.666;7.146;2024-01-06T00:33:13;24.17;;;13.00;;
5225;SDS011;2632;51.666;7.146;2024-01-06T00:35:41;24.43;;;13.33;;
5225;SDS011;2632;51.666;7.146;2024-01-06T00:38:08;25.40;;;13.90;;
5225;SDS011;2632;51.666;7.146;2024-01-06T00:40:35;27.40;;;13.50;;
5225;SDS011;2632;51.666;7.146;2024-01-06T00:43:02;23.23;;;13.13;;
5225;SDS011;2632;51.666;7.146;2024-01-06T00:45:29;30.67;;;15.27;;
5225;SDS011;2632;51.666;7.146;2024-01-06T00:47:57;27.97;;;15.10;;
5225;SDS011;2632;51.666;7.146;2024-01-06T00:50:24;29.53;;;15.67;;
5225;SDS011;2632;51.666;7.146;2024-01-06T00:52:51;29.23;;;14.77;;
5225;SDS011;2632;51.666;7.146;2024-01-06T00:55:19;29.90;;;13.87;;
5225;SDS011;2632;51.666;7.146;2024-01-06T00:57:46;27.73;;;14.50;;
5225;SDS011;2632;51.666;7.146;2024-01-06T01:00:13;32.60;;;18.50;;
5225;SDS011;2632;51.666;7.146;2024-01-06T01:02:41;30.33;;;16.43;;
5225;SDS011;2632;51.666;7.146;2024-01-06T01:05:08;31.33;;;16.03;;
5225;SDS011;2632;51.666;7.146;2024-01-06T01:07:35;29.57;;;15.30;;
5225;SDS011;2632;51.666;7.146;2024-01-06T01:10:02;26.43;;;14.13;;
5225;SDS011;2632;51.666;7.146;2024-01-06T01:12:30;32.23;;;16.23;;
5225;SDS011;2632;51.666;7.146;2024-01-06T01:14:58;28.10;;;14.50;;
5225;SDS011;2632;51.666;7.146;2024-01-06T01:17:25;33.13;;;15.03;;
5225;SDS011;2632;51.666;7.146;2024-01-06T01:19:52;29.27;;;16.30;;
5225;SDS011;2632;51.666;7.146;2024-01-06T01:22:19;31.03;;;15.97;;
5225;SDS011;2632;51.666;7.146;2024-01-06T01:24:46;30.43;;;15.83;;
5225;SDS011;2632;51.666;7.146;2024-01-06T01:27:13;30.87;;;16.20;;
5225;SDS011;2632;51.666;7.146;2024-01-06T01:29:41;34.13;;;16.13;;
5225;SDS011;2632;51.666;7.146;2024-01-06T01:32:08;32.60;;;16.77;;
5225;SDS011;2632;51.666;7.146;2024-01-06T01:34:35;30.23;;;15.20;;
5225;SDS011;2632;51.666;7.146;2024-01-06T01:37:02;27.17;;;14.77;;
5225;SDS011;2632;51.666;7.146;2024-01-06T01:39:29;34.93;;;15.87;;
5225;SDS011;2632;51.666;7.146;2024-01-06T01:41:56;29.47;;;15.23;;
5225;SDS011;2632;51.666;7.146;2024-01-06T01:44:23;27.90;;;14.13;;
5225;SDS011;2632;51.666;7.146;2024-01-06T01:46:50;27.07;;;13.40;;
5225;SDS011;2632;51.666;7.146;2024-01-06T01:49:18;22.00;;;10.90;;
5225;SDS011;2632;51.666;7.146;2024-01-06T01:51:45;21.90;;;10.60;;
5225;SDS011;2632;51.666;7.146;2024-01-06T01:54:12;22.23;;;10.57;;
5225;SDS011;2632;51.666;7.146;2024-01-06T01:56:40;18.50;;;8.87;;
5225;SDS011;2632;51.666;7.146;2024-01-06T01:59:09;18.67;;;9.33;;
5225;SDS011;2632;51.666;7.146;2024-01-06T02:01:38;17.27;;;8.87;;
5225;SDS011;2632;51.666;7.146;2024-01-06T02:04:05;18.43;;;9.23;;
5225;SDS011;2632;51.666;7.146;2024-01-06T02:06:32;16.87;;;8.30;;
5225;SDS011;2632;51.666;7.146;2024-01-06T02:09:00;17.07;;;8.90;;
5225;SDS011;2632;51.666;7.146;2024-01-06T02:11:27;20.83;;;9.80;;
5225;SDS011;2632;51.666;7.146;2024-01-06T02:13:54;16.77;;;8.20;;
5225;SDS011;2632;51.666;7.146;2024-01-06T02:16:21;16.83;;;8.67;;
5225;SDS011;2632;51.666;7.146;2024-01-06T02:18:48;19.47;;;8.77;;
5225;SDS011;2632;51.666;7.146;2024-01-06T02:21:15;17.97;;;8.80;;
5225;SDS011;2632;51.666;7.146;2024-01-06T02:23:44;15.83;;;7.70;;
5225;SDS011;2632;51.666;7.146;2024-01-06T02:26:11;18.97;;;9.10;;
5225;SDS011;2632;51.666;7.146;2024-01-06T02:28:40;18.53;;;9.30;;
5225;SDS011;2632;51.666;7.146;2024-01-06T02:31:07;13.97;;;7.90;;
5225;SDS011;2632;51.666;7.146;2024-01-06T02:33:34;17.60;;;9.17;;
5225;SDS011;2632;51.666;7.146;2024-01-06T02:36:02;19.03;;;8.83;;
5225;SDS011;2632;51.666;7.146;2024-01-06T02:38:29;16.10;;;8.27;;
5225;SDS011;2632;51.666;7.146;2024-01-06T02:40:56;15.93;;;8.67;;
5225;SDS011;2632;51.666;7.146;2024-01-06T02:43:23;18.10;;;8.80;;
5225;SDS011;2632;51.666;7.146;2024-01-06T02:45:50;16.47;;;8.90;;
5225;SDS011;2632;51.666;7.146;2024-01-06T02:48:17;16.40;;;8.30;;
5225;SDS011;2632;51.666;7.146;2024-01-06T02:50:45;17.57;;;9.33;;
5225;SDS011;2632;51.666;7.146;2024-01-06T02:53:12;17.57;;;9.40;;
5225;SDS011;2632;51.666;7.146;2024-01-06T02:55:39;15.67;;;7.83;;
5225;SDS011;2632;51.666;7.146;2024-01-06T02:58:06;16.70;;;9.00;;
5225;SDS011;2632;51.666;7.146;2024-01-06T03:00:33;17.70;;;9.27;;
5225;SDS011;2632;51.666;7.146;2024-01-06T03:03:00;21.03;;;8.63;;
5225;SDS011;2632;51.666;7.146;2024-01-06T03:05:28;18.30;;;8.77;;
5225;SDS011;2632;51.666;7.146;2024-01-06T03:07:55;13.70;;;6.90;;
5225;SDS011;2632;51.666;7.146;2024-01-06T03:10:22;15.83;;;7.87;;
5225;SDS011;2632;51.666;7.146;2024-01-06T03:12:49;16.67;;;8.03;;
5225;SDS011;2632;51.666;7.146;2024-01-06T03:15:16;16.37;;;8.40;;
5225;SDS011;2632;51.666;7.146;2024-01-06T03:17:43;20.00;;;8.80;;
5225;SDS011;2632;51.666;7.146;2024-01-06T03:20:10;17.90;;;8.50;;
5225;SDS011;2632;51.666;7.146;2024-01-06T03:22:37;18.53;;;8.50;;
5225;SDS011;2632;51.666;7.146;2024-01-06T03:25:05;19.30;;;9.07;;
5225;SDS011;2632;51.666;7.146;2024-01-06T03:27:32;18.43;;;8.10;;
5225;SDS011;2632;51.666;7.146;2024-01-06T03:29:59;18.13;;;8.43;;
5225;SDS011;2632;51.666;7.146;2024-01-06T03:32:26;16.77;;;8.43;;
5225;SDS011;2632;51.666;7.146;2024-01-06T03:34:54;20.30;;;9.07;;
5225;SDS011;2632;51.666;7.146;2024-01-06T03:37:21;16.27;;;7.17;;
5225;SDS011;2632;51.666;7.146;2024-01-06T03:39:49;17.60;;;7.83;;
5225;SDS011;2632;51.666;7.146;2024-01-06T03:42:16;15.13;;;7.73;;
5225;SDS011;2632;51.666;7.146;2024-01-06T03:44:43;15.07;;;7.70;;
5225;SDS011;2632;51.666;7.146;2024-01-06T03:47:10;15.30;;;7.80;;
5225;SDS011;2632;51.666;7.146;2024-01-06T03:49:37;17.10;;;8.37;;
5225;SDS011;2632;51.666;7.146;2024-01-06T03:52:04;18.00;;;8.03;;
5225;SDS011;2632;51.666;7.146;2024-01-06T03:54:31;17.33;;;7.87;;
5225;SDS011;2632;51.666;7.146;2024-01-06T03:56:59;19.60;;;9.43;;
5225;SDS011;2632;51.666;7.146;2024-01-06T03:59:26;24.63;;;10.63;;
5225;SDS011;2632;51.666;7.146;2024-01-06T04:01:53;22.70;;;10.30;;
5225;SDS011;2632;51.666;7.146;2024-01-06T04:04:20;22.63;;;9.50;;
5225;SDS011;2632;51.666;7.146;2024-01-06T04:06:47;24.57;;;10.87;;
5225;SDS011;2632;51.666;7.146;2024-01-06T04:09:14;26.57;;;10.43;;
5225;SDS011;2632;51.666;7.146;2024-01-06T04:11:44;23.20;;;10.63;;
5225;SDS011;2632;51.666;7.146;2024-01-06T04:14:11;23.00;;;10.27;;
5225;SDS011;2632;51.666;7.146;2024-01-06T04:16:38;21.63;;;10.20;;
5225;SDS011;2632;51.666;7.146;2024-01-06T04:19:05;27.87;;;9.77;;
5225;SDS011;2632;51.666;7.146;2024-01-06T04:21:33;24.63;;;10.93;;
5225;SDS011;2632;51.666;7.146;2024-01-06T04:24:01;27.13;;;11.03;;
5225;SDS011;2632;51.666;7.146;2024-01-06T04:26:28;18.83;;;8.83;;
5225;SDS011;2632;51.666;7.146;2024-01-06T04:28:55;22.20;;;10.33;;
5225;SDS011;2632;51.666;7.146;2024-01-06T04:31:22;19.33;;;8.77;;
5225;SDS011;2632;51.666;7.146;2024-01-06T04:33:49;24.63;;;10.47;;
5225;SDS011;2632;51.666;7.146;2024-01-06T04:36:16;20.23;;;10.20;;
5225;SDS011;2632;51.666;7.146;2024-01-06T04:38:43;22.77;;;9.90;;
5225;SDS011;2632;51.666;7.146;2024-01-06T04:41:10;25.17;;;10.60;;
5225;SDS011;2632;51.666;7.146;2024-01-06T04:43:37;22.57;;;9.83;;
5225;SDS011;2632;51.666;7.146;2024-01-06T04:46:04;20.93;;;10.03;;
5225;SDS011;2632;51.666;7.146;2024-01-06T04:48:31;20.73;;;10.10;;
5225;SDS011;2632;51.666;7.146;2024-01-06T04:50:59;20.80;;;10.13;;
5225;SDS011;2632;51.666;7.146;2024-01-06T04:53:26;22.30;;;9.50;;
5225;SDS011;2632;51.666;7.146;2024-01-06T04:55:53;20.10;;;9.80;;
5225;SDS011;2632;51.666;7.146;2024-01-06T04:58:20;18.47;;;8.80;;
5225;SDS011;2632;51.666;7.146;2024-01-06T05:00:47;21.77;;;9.43;;
5225;SDS011;2632;51.666;7.146;2024-01-06T05:03:17;21.23;;;9.10;;
5225;SDS011;2632;51.666;7.146;2024-01-06T05:05:44;18.80;;;9.10;;
5225;SDS011;2632;51.666;7.146;2024-01-06T05:08:12;18.37;;;8.73;;
5225;SDS011;2632;51.666;7.146;2024-01-06T05:10:39;18.67;;;8.23;;
5225;SDS011;2632;51.666;7.146;2024-01-06T05:13:06;18.90;;;8.90;;
5225;SDS011;2632;51.666;7.146;2024-01-06T05:15:33;18.00;;;9.20;;
5225;SDS011;2632;51.666;7.146;2024-01-06T05:18:00;18.13;;;8.57;;
5225;SDS011;2632;51.666;7.146;2024-01-06T05:20:28;19.23;;;8.77;;
5225;SDS011;2632;51.666;7.146;2024-01-06T05:22:55;19.80;;;9.03;;
5225;SDS011;2632;51.666;7.146;2024-01-06T05:25:22;16.57;;;8.07;;
5225;SDS011;2632;51.666;7.146;2024-01-06T05:27:49;20.00;;;10.10;;
5225;SDS011;2632;51.666;7.146;2024-01-06T05:30:16;20.50;;;9.57;;
5225;SDS011;2632;51.666;7.146;2024-01-06T05:32:44;20.13;;;9.10;;
5225;SDS011;2632;51.666;7.146;2024-01-06T05:35:11;21.07;;;8.30;;
5225;SDS011;2632;51.666;7.146;2024-01-06T05:37:38;21.00;;;9.67;;
5225;SDS011;2632;51.666;7.146;2024-01-06T05:40:06;21.30;;;10.77;;
5225;SDS011;2632;51.666;7.146;2024-01-06T05:42:33;18.90;;;9.07;;
5225;SDS011;2632;51.666;7.146;2024-01-06T05:45:00;21.20;;;9.50;;
5225;SDS011;2632;51.666;7.146;2024-01-06T05:47:27;20.90;;;8.90;;
5225;SDS011;2632;51.666;7.146;2024-01-06T05:49:55;20.23;;;10.23;;
5225;SDS011;2632;51.666;7.146;2024-01-06T05:52:22;21.33;;;9.97;;
5225;SDS011;2632;51.666;7.146;2024-01-06T05:54:49;19.37;;;8.80;;
5225;SDS011;2632;51.666;7.146;2024-01-06T05:57:16;21.37;;;10.43;;
5225;SDS011;2632;51.666;7.146;2024-01-06T05:59:44;20.97;;;9.70;;
5225;SDS011;2632;51.666;7.146;2024-01-06T06:02:11;19.20;;;10.00;;
5225;SDS011;2632;51.666;7.146;2024-01-06T06:04:38;22.60;;;10.50;;
5225;SDS011;2632;51.666;7.146;2024-01-06T06:07:05;22.17;;;9.97;;
5225;SDS011;2632;51.666;7.146;2024-01-06T06:09:33;24.80;;;10.10;;
5225;SDS011;2632;51.666;7.146;2024-01-06T06:12:01;26.13;;;11.00;;
5225;SDS011;2632;51.666;7.146;2024-01-06T06:14:28;21.33;;;10.33;;
5225;SDS011;2632;51.666;7.146;2024-01-06T06:16:55;23.57;;;10.37;;
5225;SDS011;2632;51.666;7.146;2024-01-06T06:19:23;25.80;;;10.03;;
5225;SDS011;2632;51.666;7.146;2024-01-06T06:21:50;25.17;;;11.47;;
5225;SDS011;2632;51.666;7.146;2024-01-06T06:24:18;24.00;;;10.13;;
5225;SDS011;2632;51.666;7.146;2024-01-06T06:26:45;25.00;;;10.97;;
5225;SDS011;2632;51.666;7.146;2024-01-06T06:29:12;20.27;;;10.27;;
5225;SDS011;2632;51.666;7.146;2024-01-06T06:31:39;27.27;;;11.80;;
5225;SDS011;2632;51.666;7.146;2024-01-06T06:34:08;27.93;;;12.30;;
5225;SDS011;2632;51.666;7.146;2024-01-06T06:36:36;27.43;;;11.60;;
5225;SDS011;2632;51.666;7.146;2024-01-06T06:39:04;26.23;;;11.37;;
5225;SDS011;2632;51.666;7.146;2024-01-06T06:41:31;25.47;;;9.83;;
5225;SDS011;2632;51.666;7.146;2024-01-06T06:43:58;25.20;;;9.67;;
5225;SDS011;2632;51.666;7.146;2024-01-06T06:46:26;22.17;;;9.50;;
5225;SDS011;2632;51.666;7.146;2024-01-06T06:48:53;21.60;;;9.80;;
5225;SDS011;2632;51.666;7.146;2024-01-06T06:51:21;19.83;;;8.50;;
5225;SDS011;2632;51.666;7.146;2024-01-06T06:53:51;16.03;;;8.13;;
5225;SDS011;2632;51.666;7.146;2024-01-06T06:56:18;16.63;;;8.13;;
5225;SDS011;2632;51.666;7.146;2024-01-06T06:58:45;19.23;;;8.43;;
5225;SDS011;2632;51.666;7.146;2024-01-06T07:01:15;21.23;;;9.03;;
5225;SDS011;2632;51.666;7.146;2024-01-06T07:03:43;18.77;;;8.00;;
5225;SDS011;2632;51.666;7.146;2024-01-06T07:06:13;18.80;;;7.47;;
5225;SDS011;2632;51.666;7.146;2024-01-06T07:08:41;18.40;;;8.00;;
5225;SDS011;2632;51.666;7.146;2024-01-06T07:11:08;17.33;;;7.93;;
5225;SDS011;2632;51.666;7.146;2024-01-06T07:13:37;20.83;;;8.53;;
5225;SDS011;2632;51.666;7.146;2024-01-06T07:16:05;18.97;;;8.10;;
5225;SDS011;2632;51.666;7.146;2024-01-06T07:18:44;20.43;;;8.37;;
5225;SDS011;2632;51.666;7.146;2024-01-06T07:21:12;21.53;;;8.67;;
5225;SDS011;2632;51.666;7.146;2024-01-06T07:23:40;21.60;;;9.00;;
5225;SDS011;2632;51.666;7.146;2024-01-06T07:26:07;22.00;;;7.93;;
5225;SDS011;2632;51.666;7.146;2024-01-06T07:28:34;26.10;;;10.70;;
5225;SDS011;2632;51.666;7.146;2024-01-06T07:31:02;22.23;;;9.43;;
5225;SDS011;2632;51.666;7.146;2024-01-06T07:33:31;22.87;;;9.97;;
5225;SDS011;2632;51.666;7.146;2024-01-06T07:35:58;24.57;;;9.27;;
5225;SDS011;2632;51.666;7.146;2024-01-06T07:38:26;27.40;;;10.93;;
5225;SDS011;2632;51.666;7.146;2024-01-06T07:40:59;25.63;;;9.13;;
5225;SDS011;2632;51.666;7.146;2024-01-06T07:43:26;25.50;;;10.23;;
5225;SDS011;2632;51.666;7.146;2024-01-06T07:45:53;25.90;;;10.73;;
5225;SDS011;2632;51.666;7.146;2024-01-06T07:48:21;22.93;;;9.50;;
5225;SDS011;2632;51.666;7.146;2024-01-06T07:50:48;29.10;;;10.20;;
5225;SDS011;2632;51.666;7.146;2024-01-06T07:53:15;27.90;;;11.03;;
5225;SDS011;2632;51.666;7.146;2024-01-06T07:55:43;24.23;;;9.70;;
5225;SDS011;2632;51.666;7.146;2024-01-06T07:58:10;24.33;;;10.33;;
5225;SDS011;2632;51.666;7.146;2024-01-06T08:00:38;24.67;;;9.70;;
5225;SDS011;2632;51.666;7.146;2024-01-06T08:03:05;22.90;;;9.90;;
5225;SDS011;2632;51.666;7.146;2024-01-06T08:05:32;19.10;;;9.20;;
5225;SDS011;2632;51.666;7.146;2024-01-06T08:07:59;20.80;;;9.43;;
5225;SDS011;2632;51.666;7.146;2024-01-06T08:10:26;20.57;;;9.40;;
5225;SDS011;2632;51.666;7.146;2024-01-06T08:12:53;17.73;;;8.37;;
5225;SDS011;2632;51.666;7.146;2024-01-06T08:15:21;19.73;;;8.77;;
5225;SDS011;2632;51.666;7.146;2024-01-06T08:17:48;16.93;;;7.93;;
5225;SDS011;2632;51.666;7.146;2024-01-06T08:20:15;16.57;;;7.60;;
5225;SDS011;2632;51.666;7.146;2024-01-06T08:22:43;15.83;;;7.40;;
5225;SDS011;2632;51.666;7.146;2024-01-06T08:25:10;14.30;;;6.60;;
5225;SDS011;2632;51.666;7.146;2024-01-06T08:27:37;15.27;;;6.43;;
5225;SDS011;2632;51.666;7.146;2024-01-06T08:30:04;12.93;;;6.93;;
5225;SDS011;2632;51.666;7.146;2024-01-06T08:32:32;11.60;;;6.47;;
5225;SDS011;2632;51.666;7.146;2024-01-06T08:34:59;11.63;;;6.20;;
5225;SDS011;2632;51.666;7.146;2024-01-06T08:37:26;11.90;;;5.97;;
5225;SDS011;2632;51.666;7.146;2024-01-06T08:39:54;9.90;;;5.40;;
5225;SDS011;2632;51.666;7.146;2024-01-06T08:42:21;11.60;;;5.00;;
5225;SDS011;2632;51.666;7.146;2024-01-06T08:44:49;14.20;;;5.70;;
5225;SDS011;2632;51.666;7.146;2024-01-06T08:47:16;8.77;;;5.07;;
5225;SDS011;2632;51.666;7.146;2024-01-06T08:49:43;11.30;;;5.27;;
5225;SDS011;2632;51.666;7.146;2024-01-06T08:52:10;14.20;;;5.90;;
5225;SDS011;2632;51.666;7.146;2024-01-06T08:54:38;14.70;;;6.00;;
5225;SDS011;2632;51.666;7.146;2024-01-06T08:57:06;14.13;;;5.50;;
5225;SDS011;2632;51.666;7.146;2024-01-06T08:59:33;13.90;;;6.37;;
5225;SDS011;2632;51.666;7.146;2024-01-06T09:02:00;13.30;;;6.60;;
5225;SDS011;2632;51.666;7.146;2024-01-06T09:04:27;18.30;;;7.90;;
5225;SDS011;2632;51.666;7.146;2024-01-06T09:06:54;18.50;;;8.30;;
5225;SDS011;2632;51.666;7.146;2024-01-06T09:09:21;18.73;;;8.23;;
5225;SDS011;2632;51.666;7.146;2024-01-06T09:11:49;21.27;;;8.77;;
5225;SDS011;2632;51.666;7.146;2024-01-06T09:14:17;21.90;;;9.13;;
5225;SDS011;2632;51.666;7.146;2024-01-06T09:16:44;18.40;;;8.50;;
5225;SDS011;2632;51.666;7.146;2024-01-06T09:19:11;20.87;;;9.40;;
5225;SDS011;2632;51.666;7.146;2024-01-06T09:21:38;21.67;;;10.20;;
5225;SDS011;2632;51.666;7.146;2024-01-06T09:24:05;25.73;;;10.50;;
5225;SDS011;2632;51.666;7.146;2024-01-06T09:26:33;21.87;;;9.60;;
5225;SDS011;2632;51.666;7.146;2024-01-06T09:29:00;22.53;;;10.57;;
5225;SDS011;2632;51.666;7.146;2024-01-06T09:31:27;21.40;;;10.17;;
5225;SDS011;2632;51.666;7.146;2024-01-06T09:33:55;23.43;;;10.93;;
5225;SDS011;2632;51.666;7.146;2024-01-06T09:36:22;24.93;;;10.50;;
5225;SDS011;2632;51.666;7.146;2024-01-06T09:38:49;23.93;;;11.20;;
5225;SDS011;2632;51.666;7.146;2024-01-06T09:41:16;28.00;;;11.20;;
5225;SDS011;2632;51.666;7.146;2024-01-06T09:43:43;29.90;;;11.67;;
5225;SDS011;2632;51.666;7.146;2024-01-06T09:46:11;28.90;;;11.63;;
5225;SDS011;2632;51.666;7.146;2024-01-06T09:48:42;23.97;;;11.03;;
5225;SDS011;2632;51.666;7.146;2024-01-06T09:51:11;25.30;;;11.50;;
5225;SDS011;2632;51.666;7.146;2024-01-06T09:53:57;27.20;;;11.93;;
5225;SDS011;2632;51.666;7.146;2024-01-06T09:56:25;24.30;;;10.80;;
5225;SDS011;2632;51.666;7.146;2024-01-06T09:58:52;24.73;;;11.43;;
5225;SDS011;2632;51.666;7.146;2024-01-06T10:01:20;26.03;;;11.00;;
5225;SDS011;2632;51.666;7.146;2024-01-06T10:03:47;23.93;;;11.80;;
5225;SDS011;2632;51.666;7.146;2024-01-06T10:06:15;27.63;;;12.40;;
5225;SDS011;2632;51.666;7.146;2024-01-06T10:08:43;22.97;;;11.10;;
5225;SDS011;2632;51.666;7.146;2024-01-06T10:11:10;28.67;;;11.90;;
5225;SDS011;2632;51.666;7.146;2024-01-06T10:13:37;25.50;;;11.97;;
5225;SDS011;2632;51.666;7.146;2024-01-06T10:16:07;28.43;;;14.47;;
5225;SDS011;2632;51.666;7.146;2024-01-06T10:18:35;25.50;;;11.70;;
5225;SDS011;2632;51.666;7.146;2024-01-06T10:21:03;27.10;;;12.73;;
5225;SDS011;2632;51.666;7.146;2024-01-06T10:23:31;28.60;;;12.37;;
5225;SDS011;2632;51.666;7.146;2024-01-06T10:25:59;26.60;;;11.87;;
5225;SDS011;2632;51.666;7.146;2024-01-06T10:28:30;22.27;;;11.07;;
5225;SDS011;2632;51.666;7.146;2024-01-06T10:30:58;24.77;;;10.90;;
5225;SDS011;2632;51.666;7.146;2024-01-06T10:33:26;26.70;;;12.07;;
5225;SDS011;2632;51.666;7.146;2024-01-06T10:35:53;24.37;;;11.10;;
5225;SDS011;2632;51.666;7.146;2024-01-06T10:38:21;25.80;;;11.70;;
5225;SDS011;2632;51.666;7.146;2024-01-06T10:43:35;25.33;;;11.10;;
5225;SDS011;2632;51.666;7.146;2024-01-06T10:46:04;27.80;;;11.40;;
5225;SDS011;2632;51.666;7.146;2024-01-06T10:48:32;27.27;;;11.80;;
5225;SDS011;2632;51.666;7.146;2024-01-06T10:51:04;28.50;;;11.63;;
5225;SDS011;2632;51.666;7.146;2024-01-06T10:53:33;27.70;;;12.43;;
5225;SDS011;2632;51.666;7.146;2024-01-06T10:56:05;24.30;;;11.43;;
5225;SDS011;2632;51.666;7.146;2024-01-06T10:58:42;24.53;;;10.73;;
5225;SDS011;2632;51.666;7.146;2024-01-06T11:01:10;31.50;;;13.50;;
5225;SDS011;2632;51.666;7.146;2024-01-06T11:03:40;36.40;;;14.47;;
5225;SDS011;2632;51.666;7.146;2024-01-06T11:06:08;30.73;;;13.30;;
5225;SDS011;2632;51.666;7.146;2024-01-06T11:08:51;32.37;;;13.93;;
5225;SDS011;2632;51.666;7.146;2024-01-06T11:11:19;29.90;;;13.47;;
5225;SDS011;2632;51.666;7.146;2024-01-06T11:13:47;29.30;;;13.53;;
5225;SDS011;2632;51.666;7.146;2024-01-06T11:16:36;40.77;;;14.37;;
5225;SDS011;2632;51.666;7.146;2024-01-06T11:19:41;38.70;;;13.93;;
5225;SDS011;2632;51.666;7.146;2024-01-06T11:21:51;30.67;;;13.47;;
5225;SDS011;2632;51.666;7.146;2024-01-06T11:24:18;29.00;;;12.30;;
5225;SDS011;2632;51.666;7.146;2024-01-06T11:26:55;29.73;;;13.07;;
5225;SDS011;2632;51.666;7.146;2024-01-06T11:29:23;28.30;;;12.80;;
5225;SDS011;2632;51.666;7.146;2024-01-06T11:34:36;31.40;;;12.83;;
5225;SDS011;2632;51.666;7.146;2024-01-06T11:37:04;31.17;;;14.17;;
5225;SDS011;2632;51.666;7.146;2024-01-06T11:39:38;32.10;;;13.17;;
5225;SDS011;2632;51.666;7.146;2024-01-06T11:42:09;30.00;;;12.87;;
5225;SDS011;2632;51.666;7.146;2024-01-06T11:44:38;34.33;;;13.97;;
5225;SDS011;2632;51.666;7.146;2024-01-06T11:47:05;36.00;;;15.20;;
5225;SDS011;2632;51.666;7.146;2024-01-06T11:49:33;29.37;;;12.37;;
5225;SDS011;2632;51.666;7.146;2024-01-06T11:52:00;24.80;;;11.47;;
5225;SDS011;2632;51.666;7.146;2024-01-06T11:54:27;29.60;;;12.10;;
5225;SDS011;2632;51.666;7.146;2024-01-06T11:56:54;27.67;;;11.23;;
5225;SDS011;2632;51.666;7.146;2024-01-06T11:59:23;29.13;;;13.47;;
5225;SDS011;2632;51.666;7.146;2024-01-06T12:01:50;29.17;;;12.30;;
5225;SDS011;2632;51.666;7.146;2024-01-06T12:04:17;29.97;;;12.40;;
5225;SDS011;2632;51.666;7.146;2024-01-06T12:06:45;24.20;;;11.20;;
5225;SDS011;2632;51.666;7.146;2024-01-06T12:09:12;23.67;;;9.97;;
5225;SDS011;2632;51.666;7.146;2024-01-06T12:11:42;23.77;;;10.47;;
5225;SDS011;2632;51.666;7.146;2024-01-06T12:14:11;22.07;;;9.90;;
5225;SDS011;2632;51.666;7.146;2024-01-06T12:16:38;21.67;;;9.93;;
5225;SDS011;2632;51.666;7.146;2024-01-06T12:19:05;24.60;;;10.53;;
5225;SDS011;2632;51.666;7.146;2024-01-06T12:21:32;22.43;;;10.00;;
5225;SDS011;2632;51.666;7.146;2024-01-06T12:24:16;24.50;;;11.27;;
5225;SDS011;2632;51.666;7.146;2024-01-06T12:26:46;25.20;;;9.70;;
5225;SDS011;2632;51.666;7.146;2024-01-06T12:29:13;24.00;;;10.13;;
5225;SDS011;2632;51.666;7.146;2024-01-06T12:31:41;23.80;;;9.80;;
5225;SDS011;2632;51.666;7.146;2024-01-06T12:34:09;23.90;;;10.90;;
5225;SDS011;2632;51.666;7.146;2024-01-06T12:36:37;18.97;;;9.27;;
5225;SDS011;2632;51.666;7.146;2024-01-06T12:39:04;23.90;;;9.00;;
5225;SDS011;2632;51.666;7.146;2024-01-06T12:41:32;22.67;;;8.93;;
5225;SDS011;2632;51.666;7.146;2024-01-06T12:43:59;22.00;;;9.30;;
5225;SDS011;2632;51.666;7.146;2024-01-06T12:46:27;25.03;;;9.07;;
5225;SDS011;2632;51.666;7.146;2024-01-06T12:48:54;18.97;;;8.77;;
5225;SDS011;2632;51.666;7.146;2024-01-06T12:51:21;20.03;;;9.70;;
5225;SDS011;2632;51.666;7.146;2024-01-06T12:53:48;21.10;;;9.50;;
5225;SDS011;2632;51.666;7.146;2024-01-06T12:56:15;20.93;;;9.37;;
5225;SDS011;2632;51.666;7.146;2024-01-06T12:58:42;25.50;;;10.63;;
5225;SDS011;2632;51.666;7.146;2024-01-06T13:01:10;21.20;;;8.80;;
5225;SDS011;2632;51.666;7.146;2024-01-06T13:03:37;22.10;;;9.60;;
5225;SDS011;2632;51.666;7.146;2024-01-06T13:06:05;20.03;;;8.87;;
5225;SDS011;2632;51.666;7.146;2024-01-06T13:08:32;23.70;;;9.37;;
5225;SDS011;2632;51.666;7.146;2024-01-06T13:11:00;21.10;;;9.70;;
5225;SDS011;2632;51.666;7.146;2024-01-06T13:13:27;27.20;;;9.60;;
5225;SDS011;2632;51.666;7.146;2024-01-06T13:15:54;19.17;;;8.63;;
5225;SDS011;2632;51.666;7.146;2024-01-06T13:18:21;24.23;;;10.77;;
5225;SDS011;2632;51.666;7.146;2024-01-06T13:20:48;23.67;;;9.70;;
5225;SDS011;2632;51.666;7.146;2024-01-06T13:23:15;23.07;;;9.70;;
5225;SDS011;2632;51.666;7.146;2024-01-06T13:25:43;20.80;;;9.53;;
5225;SDS011;2632;51.666;7.146;2024-01-06T13:28:11;24.13;;;9.53;;
5225;SDS011;2632;51.666;7.146;2024-01-06T13:30:38;28.87;;;10.60;;
5225;SDS011;2632;51.666;7.146;2024-01-06T13:33:06;30.80;;;10.80;;
5225;SDS011;2632;51.666;7.146;2024-01-06T13:35:35;21.53;;;9.63;;
5225;SDS011;2632;51.666;7.146;2024-01-06T13:38:03;23.07;;;9.57;;
5225;SDS011;2632;51.666;7.146;2024-01-06T13:40:30;23.50;;;10.40;;
5225;SDS011;2632;51.666;7.146;2024-01-06T13:42:58;23.67;;;10.53;;
5225;SDS011;2632;51.666;7.146;2024-01-06T13:45:25;20.23;;;9.70;;
5225;SDS011;2632;51.666;7.146;2024-01-06T13:47:53;21.20;;;9.40;;
5225;SDS011;2632;51.666;7.146;2024-01-06T13:50:20;24.67;;;10.60;;
5225;SDS011;2632;51.666;7.146;2024-01-06T13:52:47;24.93;;;10.80;;
5225;SDS011;2632;51.666;7.146;2024-01-06T13:55:15;23.40;;;10.80;;
5225;SDS011;2632;51.666;7.146;2024-01-06T13:57:42;23.37;;;10.23;;
5225;SDS011;2632;51.666;7.146;2024-01-06T14:00:10;26.87;;;10.70;;
5225;SDS011;2632;51.666;7.146;2024-01-06T14:02:43;23.33;;;9.80;;
5225;SDS011;2632;51.666;7.146;2024-01-06T14:05:11;20.70;;;9.97;;
5225;SDS011;2632;51.666;7.146;2024-01-06T14:07:39;23.87;;;10.73;;
5225;SDS011;2632;51.666;7.146;2024-01-06T14:10:11;21.67;;;9.67;;
5225;SDS011;2632;51.666;7.146;2024-01-06T14:12:40;23.20;;;10.27;;
5225;SDS011;2632;51.666;7.146;2024-01-06T14:15:07;23.93;;;10.60;;
5225;SDS011;2632;51.666;7.146;2024-01-06T14:17:35;24.97;;;10.70;;
5225;SDS011;2632;51.666;7.146;2024-01-06T14:20:02;26.87;;;10.83;;
5225;SDS011;2632;51.666;7.146;2024-01-06T14:22:30;27.93;;;11.20;;
5225;SDS011;2632;51.666;7.146;2024-01-06T14:24:57;24.00;;;10.37;;
5225;SDS011;2632;51.666;7.146;2024-01-06T14:27:27;25.17;;;11.40;;
5225;SDS011;2632;51.666;7.146;2024-01-06T14:29:56;21.63;;;9.87;;
5225;SDS011;2632;51.666;7.146;2024-01-06T14:32:23;20.87;;;8.77;;
5225;SDS011;2632;51.666;7.146;2024-01-06T14:34:50;18.97;;;9.40;;
5225;SDS011;2632;51.666;7.146;2024-01-06T14:37:18;19.80;;;8.60;;
5225;SDS011;2632;51.666;7.146;2024-01-06T14:39:45;21.93;;;9.03;;
5225;SDS011;2632;51.666;7.146;2024-01-06T14:42:12;16.00;;;8.23;;
5225;SDS011;2632;51.666;7.146;2024-01-06T14:44:39;18.87;;;8.73;;
5225;SDS011;2632;51.666;7.146;2024-01-06T14:47:06;20.70;;;9.13;;
5225;SDS011;2632;51.666;7.146;2024-01-06T14:49:33;18.43;;;8.70;;
5225;SDS011;2632;51.666;7.146;2024-01-06T14:52:01;17.20;;;9.27;;
5225;SDS011;2632;51.666;7.146;2024-01-06T14:54:28;14.47;;;7.73;;
5225;SDS011;2632;51.666;7.146;2024-01-06T14:56:57;16.60;;;8.00;;
5225;SDS011;2632;51.666;7.146;2024-01-06T14:59:24;19.90;;;8.80;;
5225;SDS011;2632;51.666;7.146;2024-01-06T15:01:51;18.03;;;8.30;;
5225;SDS011;2632;51.666;7.146;2024-01-06T15:04:19;24.00;;;12.30;;